KSUS/SUS METAR and TAF weather

Enter ICAO airport designator
Station Type Date Time Source
KSUS METAR 2021/09/20 03:54 UTC NOAA

KSUS 200354Z AUTO 12004KT 10SM SCT030 OVC080 23/21 A2995 RMK AO2 SLP134 T02280206


Station Type Date Time Source
KSUS Decoded METAR 2021/09/20 03:54 UTC NOAA

SPIRIT OF ST. LOUIS AIRPORT , MO, United States (KSUS) 38-39N 090-39W 141M
Sep 19, 2021 - 11:54 PM EDT / 2021.09.20 0354 UTC
Wind: from the ESE (120 degrees) at 5 MPH (4 KT):0
Visibility: 10 mile(s):0
Sky conditions: overcast
Temperature: 73.0 F (22.8 C)
Dew Point: 69.1 F (20.6 C)
Relative Humidity: 87%
Pressure (altimeter): 29.95 in. Hg (1014 hPa)
ob: KSUS 200354Z AUTO 12004KT 10SM SCT030 OVC080 23/21 A2995 RMK AO2 SLP134 T02280206
cycle: 4

Station Type Date Time Source
KSUS TAF 2021/09/19 23:57 UTC NOAA

TAF
AMD KSUS 192253Z 1923/2018 13008KT P6SM BKN040
TEMPO 1923/1924 13020G25KT 6SM -TSRA BKN040CB
FM200500 13007KT P6SM BKN021
FM200900 16005KT P6SM BKN009
FM201200 18007KT P6SM BKN012
FM201600 18008KT P6SM BKN025

Example: see airport list